Terminal Aerodrome Forecast
Issued by NWS

Current Version | Previous Version | Graphics & Text | Print | Product List | Glossary On
Versions: 1 2 3 4 5 6 7 8 9 10 11 12 13
000
FTUS41 KPBZ 260247 AAA
TAFHLG
TAF AMD
KHLG 260247Z 2603/2624 21005KT P6SM BKN100
     FM260700 18004KT P6SM VCSH BKN035
     FM261800 20008KT P6SM VCTS BKN040CB=

USA.gov is the U.S. government's official web portal to all federal, state and local government web resources and services.